createdAt,value
2019-03-13T00:02:06.850Z,96713.00
2019-03-13T00:06:07.844Z,96739.00
2019-03-13T00:10:10.048Z,96783.00
2019-03-13T00:14:11.223Z,96792.00
2019-03-13T00:18:12.172Z,96803.00
2019-03-13T00:22:13.206Z,96816.00
2019-03-13T00:26:14.244Z,96845.00
2019-03-13T00:30:15.320Z,96846.00
2019-03-13T00:34:16.179Z,96854.00
2019-03-13T00:38:17.063Z,96865.00
2019-03-13T00:42:18.019Z,96866.00
2019-03-13T00:46:18.895Z,96886.00
2019-03-13T00:50:28.356Z,96897.00
2019-03-13T00:54:29.237Z,96904.00
2019-03-13T00:58:30.093Z,96920.00
2019-03-13T01:02:38.838Z,96914.00
2019-03-13T01:06:41.702Z,96917.00
2019-03-13T01:10:42.548Z,96909.00
2019-03-13T01:14:43.468Z,96920.00
2019-03-13T01:18:44.363Z,96913.00
2019-03-13T01:22:45.343Z,96912.00
2019-03-13T01:26:46.269Z,96929.00
2019-03-13T01:31:05.715Z,96913.00
2019-03-13T01:35:08.800Z,96920.00
2019-03-13T01:39:09.693Z,96924.00
2019-03-13T01:43:10.548Z,96926.00
2019-03-13T01:47:11.537Z,96923.00
2019-03-13T01:51:12.388Z,96940.00
2019-03-13T01:55:13.371Z,96957.00
2019-03-13T01:59:14.289Z,96957.00
2019-03-13T02:03:15.256Z,96960.00
2019-03-13T02:07:16.227Z,96980.00
2019-03-13T02:11:17.112Z,96983.00
2019-03-13T02:15:18.332Z,96987.00
2019-03-13T02:19:19.290Z,97008.00
2019-03-13T02:23:20.152Z,97004.00
2019-03-13T02:27:21.113Z,97009.00
2019-03-13T02:31:22.010Z,97014.00
2019-03-13T02:35:22.919Z,97011.00
2019-03-13T02:39:23.859Z,97024.00
2019-03-13T02:43:24.728Z,97024.00
2019-03-13T02:47:25.699Z,97037.00
2019-03-13T02:51:26.569Z,97037.00
2019-03-13T02:55:27.433Z,97023.00
2019-03-13T02:59:28.419Z,97028.00
2019-03-13T03:03:34.029Z,97036.00
2019-03-13T03:07:35.174Z,97032.00
2019-03-13T03:11:36.139Z,97040.00
2019-03-13T03:15:37.043Z,97050.00
2019-03-13T03:19:37.933Z,97042.00
2019-03-13T03:23:38.907Z,97040.00
2019-03-13T03:27:39.877Z,97034.00
2019-03-13T03:31:40.973Z,97021.00
2019-03-13T03:35:41.930Z,97027.00
2019-03-13T03:39:42.801Z,97026.00
2019-03-13T03:43:43.905Z,97036.00
2019-03-13T03:47:45.036Z,97038.00
2019-03-13T03:51:45.990Z,97038.00
2019-03-13T03:55:47.255Z,97035.00
2019-03-13T03:59:48.454Z,97026.00
2019-03-13T04:03:49.457Z,97038.00
2019-03-13T04:07:50.323Z,97050.00
2019-03-13T04:11:51.213Z,97057.00
2019-03-13T04:15:52.119Z,97053.00
2019-03-13T04:19:53.069Z,97056.00
2019-03-13T04:23:53.973Z,97055.00
2019-03-13T04:27:55.068Z,97073.00
2019-03-13T04:31:55.966Z,97051.00
2019-03-13T04:35:56.925Z,97051.00
2019-03-13T04:39:57.907Z,97036.00
2019-03-13T04:43:58.778Z,97050.00
2019-03-13T04:47:59.703Z,97042.00
2019-03-13T04:52:00.621Z,97038.00
2019-03-13T04:56:01.526Z,97034.00
2019-03-13T05:00:05.947Z,97033.00
2019-03-13T05:04:06.917Z,97039.00
2019-03-13T05:08:10.568Z,97038.00
2019-03-13T05:12:11.524Z,97044.00
2019-03-13T05:16:12.433Z,97038.00
2019-03-13T05:20:13.907Z,97040.00
2019-03-13T05:24:14.995Z,97048.00
2019-03-13T05:28:19.374Z,97044.00
2019-03-13T05:32:20.279Z,97050.00
2019-03-13T05:36:21.236Z,97042.00
2019-03-13T05:40:22.132Z,97037.00
2019-03-13T05:44:23.009Z,97038.00
2019-03-13T05:48:23.980Z,97036.00
2019-03-13T05:52:24.880Z,97045.00
2019-03-13T05:56:25.756Z,97044.00
2019-03-13T06:00:28.173Z,97038.00
2019-03-13T06:04:29.218Z,97046.00
2019-03-13T06:08:30.113Z,97058.00
2019-03-13T06:12:30.998Z,97054.00
2019-03-13T06:16:31.913Z,97064.00
2019-03-13T06:20:33.106Z,97051.00
2019-03-13T06:24:33.973Z,97060.00
2019-03-13T06:28:34.854Z,97070.00
2019-03-13T06:32:35.788Z,97081.00
2019-03-13T06:36:36.750Z,97081.00
2019-03-13T06:40:37.698Z,97076.00
2019-03-13T06:44:38.615Z,97094.00
2019-03-13T06:48:39.736Z,97091.00
2019-03-13T06:52:40.843Z,97080.00
2019-03-13T06:56:41.783Z,97074.00
2019-03-13T07:00:56.537Z,97074.00
2019-03-13T07:04:59.343Z,97081.00
2019-03-13T07:09:10.934Z,97058.00
2019-03-13T07:13:30.395Z,97055.00
2019-03-13T07:17:33.302Z,97057.00
2019-03-13T07:21:54.245Z,97057.00
2019-03-13T07:25:57.046Z,97068.00
2019-03-13T07:29:59.972Z,97076.00
2019-03-13T07:34:02.749Z,97085.00
2019-03-13T07:38:05.632Z,97094.00
2019-03-13T07:42:23.470Z,97098.00
2019-03-13T07:46:42.809Z,97082.00
2019-03-13T07:51:03.641Z,97085.00
2019-03-13T07:55:19.599Z,97090.00
2019-03-13T07:59:25.393Z,97095.00
2019-03-13T08:03:36.955Z,97084.00
2019-03-13T08:07:39.749Z,97086.00
2019-03-13T08:11:44.268Z,97087.00
2019-03-13T08:15:59.302Z,97081.00
2019-03-13T08:20:02.165Z,97088.00
2019-03-13T08:24:07.872Z,97092.00
2019-03-13T08:28:10.678Z,97097.00
2019-03-13T08:32:16.565Z,97091.00
2019-03-13T08:36:22.124Z,97089.00
2019-03-13T08:40:41.611Z,97099.00
2019-03-13T08:44:44.416Z,97093.00
2019-03-13T08:48:47.320Z,97079.00
2019-03-13T08:52:59.352Z,97080.00
2019-03-13T08:57:02.144Z,97055.00
2019-03-13T09:01:13.693Z,97060.00
2019-03-13T09:05:22.511Z,97068.00
2019-03-13T09:09:25.326Z,97071.00
2019-03-13T09:13:37.101Z,97061.00
2019-03-13T09:17:42.669Z,97058.00
2019-03-13T09:21:45.439Z,97073.00
2019-03-13T09:25:51.237Z,97051.00
2019-03-13T09:30:00.365Z,97057.00
2019-03-13T09:34:19.991Z,97035.00
2019-03-13T09:38:40.856Z,97025.00
2019-03-13T09:42:49.672Z,97013.00
2019-03-13T09:47:01.629Z,97004.00
2019-03-13T09:51:04.714Z,97008.00
2019-03-13T09:55:10.875Z,97003.00
2019-03-13T09:59:42.735Z,96973.00
2019-03-13T10:03:38.089Z,96967.00
2019-03-13T10:07:43.964Z,96981.00
2019-03-13T10:11:49.895Z,96989.00
2019-03-13T10:15:52.684Z,96989.00
2019-03-13T10:20:07.365Z,96978.00
2019-03-13T10:24:19.031Z,96990.00
2019-03-13T10:28:27.904Z,96986.00
2019-03-13T10:32:39.855Z,96998.00
2019-03-13T10:36:57.724Z,96985.00
2019-03-13T10:41:09.619Z,96992.00
2019-03-13T10:45:27.445Z,97004.00
2019-03-13T10:49:30.244Z,96986.00
2019-03-13T10:53:45.418Z,96982.00
2019-03-13T10:58:04.720Z,96980.00
2019-03-13T11:02:07.630Z,96979.00
2019-03-13T11:06:19.667Z,96974.00
2019-03-13T11:10:31.554Z,96960.00
2019-03-13T11:14:46.311Z,96970.00
2019-03-13T11:18:55.085Z,96973.00
2019-03-13T11:23:11.010Z,96967.00
2019-03-13T11:27:30.434Z,96966.00
2019-03-13T11:31:42.049Z,96981.00
2019-03-13T11:35:53.658Z,96971.00
2019-03-13T11:40:08.829Z,96958.00
2019-03-13T11:44:21.033Z,96941.00
2019-03-13T11:48:30.056Z,96941.00
2019-03-13T11:52:32.940Z,96898.00
2019-03-13T11:56:48.017Z,96911.00
2019-03-13T12:01:03.187Z,96919.00
2019-03-13T12:05:26.067Z,96913.00
2019-03-13T12:09:40.940Z,96908.00
2019-03-13T12:13:52.730Z,96906.00
2019-03-13T12:17:58.432Z,96918.00
2019-03-13T12:22:10.343Z,96919.00
2019-03-13T12:26:28.239Z,96908.00
2019-03-13T12:30:43.375Z,96893.00
2019-03-13T12:34:49.050Z,96897.00
2019-03-13T12:38:54.619Z,96875.00
2019-03-13T12:42:57.432Z,96861.00
2019-03-13T12:47:16.787Z,96868.00
2019-03-13T12:51:19.623Z,96864.00
2019-03-13T12:55:22.511Z,96857.00
2019-03-13T12:59:34.308Z,96857.00
2019-03-13T13:03:52.527Z,96854.00
2019-03-13T13:07:55.309Z,96855.00
2019-03-13T13:12:10.417Z,96854.00
2019-03-13T13:16:13.354Z,96857.00
2019-03-13T13:20:14.463Z,96848.00
2019-03-13T13:24:15.466Z,96848.00
2019-03-13T13:28:16.949Z,96851.00
2019-03-13T13:32:17.939Z,96850.00
2019-03-13T13:36:18.809Z,96837.00
2019-03-13T13:40:19.844Z,96838.00
2019-03-13T13:44:20.745Z,96808.00
2019-03-13T13:48:21.726Z,96823.00
2019-03-13T13:52:22.607Z,96820.00
2019-03-13T13:56:23.517Z,96818.00
2019-03-13T14:00:24.453Z,96809.00
2019-03-13T14:04:25.323Z,96810.00
2019-03-13T14:08:26.281Z,96808.00
2019-03-13T14:12:27.128Z,96809.00
2019-03-13T14:16:28.538Z,96797.00
2019-03-13T14:20:29.594Z,96819.00
2019-03-13T14:24:31.070Z,96815.00
2019-03-13T14:28:32.007Z,96799.00
2019-03-13T14:32:33.001Z,96811.00
2019-03-13T14:36:33.978Z,96801.00
2019-03-13T14:40:35.058Z,96800.00
2019-03-13T14:44:36.036Z,96793.00
2019-03-13T14:48:36.932Z,96781.00
2019-03-13T14:52:38.031Z,96795.00
2019-03-13T14:56:39.205Z,96768.00
2019-03-13T15:00:40.157Z,96781.00
2019-03-13T15:04:41.253Z,96792.00
2019-03-13T15:08:42.261Z,96802.00
2019-03-13T15:12:43.349Z,96775.00
2019-03-13T15:16:44.482Z,96794.00
2019-03-13T15:20:45.660Z,96778.00
2019-03-13T15:24:46.613Z,96787.00
2019-03-13T15:28:47.613Z,96781.00
2019-03-13T15:32:48.521Z,96781.00
2019-03-13T15:36:49.433Z,96796.00
2019-03-13T15:40:50.427Z,96783.00
2019-03-13T15:44:51.308Z,96778.00
2019-03-13T15:48:52.198Z,96771.00
2019-03-13T15:52:53.187Z,96769.00
2019-03-13T15:56:54.244Z,96770.00
2019-03-13T16:00:55.355Z,96757.00
2019-03-13T16:04:56.376Z,96763.00
2019-03-13T16:08:57.599Z,96761.00
2019-03-13T16:13:00.457Z,96766.00
2019-03-13T16:17:01.554Z,96780.00
2019-03-13T16:21:02.526Z,96792.00
2019-03-13T16:25:05.712Z,96814.00
2019-03-13T16:29:06.600Z,96799.00
2019-03-13T16:33:07.701Z,96800.00
2019-03-13T16:37:08.594Z,96819.00
2019-03-13T16:41:09.463Z,96811.00
2019-03-13T16:45:12.830Z,96814.00
2019-03-13T16:49:14.117Z,96804.00
2019-03-13T16:53:15.109Z,96795.00
2019-03-13T16:57:16.178Z,96801.00
2019-03-13T17:01:17.276Z,96807.00
2019-03-13T17:05:18.466Z,96813.00
2019-03-13T17:09:19.498Z,96809.00
2019-03-13T17:13:20.576Z,96814.00
2019-03-13T17:17:21.508Z,96799.00
2019-03-13T17:21:24.355Z,96806.00
2019-03-13T17:25:25.544Z,96798.00
2019-03-13T17:29:36.234Z,96793.00
2019-03-13T17:33:41.152Z,96790.00
2019-03-13T17:37:42.245Z,96796.00
2019-03-13T17:41:43.158Z,96813.00
2019-03-13T17:45:44.225Z,96800.00
2019-03-13T17:49:45.358Z,96808.00
2019-03-13T17:53:46.350Z,96820.00
2019-03-13T17:57:47.433Z,96833.00
2019-03-13T18:01:48.370Z,96857.00
2019-03-13T18:05:54.294Z,96874.00
2019-03-13T18:09:58.361Z,96885.00
2019-03-13T18:13:59.319Z,96888.00
2019-03-13T18:18:00.389Z,96893.00
2019-03-13T18:22:01.343Z,96890.00
2019-03-13T18:26:15.982Z,96906.00
2019-03-13T18:30:20.952Z,96915.00
2019-03-13T18:34:21.832Z,96900.00
2019-03-13T18:38:22.676Z,96900.00
2019-03-13T18:42:33.265Z,96889.00
2019-03-13T18:46:35.091Z,96904.00
2019-03-13T18:50:45.048Z,96891.00
2019-03-13T18:54:46.770Z,96895.00
2019-03-13T18:58:47.757Z,96889.00
2019-03-13T19:02:48.851Z,96903.00
2019-03-13T19:06:50.000Z,96895.00
2019-03-13T19:10:51.289Z,96903.00
2019-03-13T19:14:52.285Z,96896.00
2019-03-13T19:18:53.217Z,96904.00
2019-03-13T19:22:54.607Z,96917.00
2019-03-13T19:26:55.592Z,96933.00
2019-03-13T19:30:56.586Z,96939.00
2019-03-13T19:34:57.480Z,96949.00
2019-03-13T19:38:58.507Z,96960.00
2019-03-13T19:42:59.606Z,96977.00
2019-03-13T19:47:00.754Z,96977.00
2019-03-13T19:51:01.600Z,96986.00
2019-03-13T19:55:05.018Z,96975.00
2019-03-13T19:59:05.914Z,96972.00
2019-03-13T20:03:11.891Z,96974.00
2019-03-13T20:07:13.137Z,96984.00
2019-03-13T20:11:14.273Z,96978.00
2019-03-13T20:15:17.401Z,96991.00
2019-03-13T20:19:18.384Z,97001.00
2019-03-13T20:23:20.632Z,97016.00
2019-03-13T20:27:21.739Z,97020.00
2019-03-13T20:31:23.099Z,97030.00
2019-03-13T20:35:24.247Z,97027.00
2019-03-13T20:39:25.712Z,97028.00
2019-03-13T20:43:27.014Z,97028.00
2019-03-13T20:47:28.115Z,97034.00
2019-03-13T20:51:29.215Z,97036.00
2019-03-13T20:55:30.283Z,97023.00
2019-03-13T20:59:32.779Z,97039.00
2019-03-13T21:03:34.013Z,97031.00
2019-03-13T21:07:35.108Z,97039.00
2019-03-13T21:11:36.351Z,97033.00
2019-03-13T21:15:38.121Z,97029.00
2019-03-13T21:19:39.353Z,97031.00
2019-03-13T21:23:40.239Z,97027.00
2019-03-13T21:27:41.242Z,97022.00
2019-03-13T21:31:42.246Z,97031.00
2019-03-13T21:35:43.288Z,97005.00
2019-03-13T21:39:44.489Z,97015.00
2019-03-13T21:43:46.041Z,97017.00
2019-03-13T21:47:47.225Z,97022.00
2019-03-13T21:51:48.283Z,97019.00
2019-03-13T21:55:49.672Z,97042.00
2019-03-13T21:59:50.654Z,97027.00
2019-03-13T22:03:57.686Z,97043.00
2019-03-13T22:07:58.614Z,97061.00
2019-03-13T22:11:59.688Z,97058.00
2019-03-13T22:16:01.813Z,97059.00
2019-03-13T22:20:04.827Z,97060.00
2019-03-13T22:24:05.724Z,97074.00
2019-03-13T22:28:06.618Z,97070.00
2019-03-13T22:32:07.473Z,97068.00
2019-03-13T22:36:08.488Z,97076.00
2019-03-13T22:40:11.861Z,97095.00
2019-03-13T22:44:12.863Z,97109.00
2019-03-13T22:48:13.777Z,97120.00
2019-03-13T22:52:14.768Z,97132.00
2019-03-13T22:56:15.838Z,97132.00
2019-03-13T23:00:31.304Z,97119.00
2019-03-13T23:04:35.595Z,97120.00
2019-03-13T23:08:35.158Z,97136.00
2019-03-13T23:12:36.163Z,97133.00
2019-03-13T23:16:37.160Z,97139.00
2019-03-13T23:20:38.149Z,97145.00
2019-03-13T23:24:39.161Z,97140.00
2019-03-13T23:28:40.002Z,97145.00
2019-03-13T23:32:42.815Z,97163.00
2019-03-13T23:36:43.789Z,97165.00
2019-03-13T23:40:44.914Z,97173.00
2019-03-13T23:44:45.807Z,97162.00
2019-03-13T23:48:46.694Z,97177.00
2019-03-13T23:52:47.658Z,97183.00
2019-03-13T23:56:48.522Z,97175.00
